Time;durP1;ratioP1;P1;durP2;ratioP2;P2;SDS_P1;SDS_P2;PMS_P1;PMS_P2;Temp;Humidity;BMP_temperature;BMP_pressure;BME280_temperature;BME280_humidity;BME280_pressure;Samples;Min_cycle;Max_cycle;Signal;HPM_P1;HPM_P2
2021/04/22 00:01:35;;;;;;;3.87;1.30;;;8.50;98.00;;;;;;5078655;28;20469;-76
2021/04/22 00:04:03;;;;;;;1.70;1.50;;;8.60;98.00;;;;;;5080464;28;20471;-75
2021/04/22 00:06:31;;;;;;;3.00;2.13;;;8.60;98.00;;;;;;5078039;28;20487;-76
2021/04/22 00:08:58;;;;;;;1.40;1.20;;;8.70;98.00;;;;;;5080291;28;20457;-76
2021/04/22 00:11:25;;;;;;;1.93;1.53;;;8.70;98.00;;;;;;5078356;28;20463;-76
2021/04/22 00:13:51;;;;;;;1.20;1.10;;;8.80;98.00;;;;;;5079397;28;20533;-75
2021/04/22 00:16:18;;;;;;;2.53;2.20;;;9.00;98.00;;;;;;5077817;28;20521;-76
2021/04/22 00:18:46;;;;;;;1.30;1.10;;;9.00;98.00;;;;;;5079798;28;20456;-75
2021/04/22 00:21:12;;;;;;;1.73;1.73;;;8.90;98.00;;;;;;5075675;28;20457;-76
2021/04/22 00:23:39;;;;;;;1.47;1.30;;;8.80;98.00;;;;;;5080083;28;20457;-76
2021/04/22 00:26:06;;;;;;;3.50;1.83;;;8.90;98.00;;;;;;5076917;28;20484;-75
2021/04/22 00:28:32;;;;;;;1.87;1.23;;;8.80;98.00;;;;;;5079857;28;20464;-76
2021/04/22 00:30:59;;;;;;;8.60;1.93;;;8.80;98.00;;;;;;5077737;28;21056;-76
2021/04/22 00:33:25;;;;;;;1.20;1.10;;;8.90;98.00;;;;;;5079802;28;20818;-75
2021/04/22 00:35:53;;;;;;;1.40;1.10;;;9.10;98.00;;;;;;5076699;28;20449;-75
2021/04/22 00:38:20;;;;;;;1.50;1.20;;;8.90;98.00;;;;;;5078941;28;20566;-76
2021/04/22 00:40:50;;;;;;;2.80;1.47;;;8.80;98.00;;;;;;5075720;28;20484;-76
2021/04/22 00:43:19;;;;;;;1.93;1.40;;;8.80;98.00;;;;;;5079272;28;20464;-76
2021/04/22 00:45:48;;;;;;;2.20;2.10;;;9.00;98.00;;;;;;5076150;28;20530;-75
2021/04/22 00:48:17;;;;;;;1.77;1.30;;;9.20;98.00;;;;;;5079049;28;20527;-75
2021/04/22 00:50:44;;;;;;;1.27;1.17;;;9.20;98.00;;;;;;5075991;28;20449;-75
2021/04/22 00:53:12;;;;;;;1.30;1.20;;;9.20;98.00;;;;;;5078325;28;20983;-75
2021/04/22 00:55:40;;;;;;;1.30;1.27;;;9.20;98.00;;;;;;5077095;28;20457;-75
2021/04/22 00:58:08;;;;;;;1.60;1.40;;;9.20;98.00;;;;;;5078262;28;20797;-76
2021/04/22 01:00:38;;;;;;;3.00;1.63;;;9.40;98.00;;;;;;5076214;28;20487;-75
2021/04/22 01:03:05;;;;;;;2.80;1.60;;;9.50;98.00;;;;;;5078234;28;20514;-75
2021/04/22 01:05:36;;;;;;;1.40;1.10;;;9.50;98.00;;;;;;5076638;28;20770;-76
2021/04/22 01:08:06;;;;;;;1.80;1.50;;;9.50;98.00;;;;;;5076848;28;20532;-75
2021/04/22 01:10:34;;;;;;;1.40;1.10;;;9.40;98.00;;;;;;5076563;28;20453;-75
2021/04/22 01:13:01;;;;;;;2.47;1.60;;;9.50;98.00;;;;;;5078452;28;20535;-75
2021/04/22 01:15:30;;;;;;;1.93;1.40;;;9.40;98.00;;;;;;5076260;28;20457;-75
2021/04/22 01:17:57;;;;;;;1.90;1.73;;;9.40;98.00;;;;;;5077605;28;20462;-75
2021/04/22 01:20:27;;;;;;;2.10;1.63;;;9.40;98.00;;;;;;5075706;28;20864;-75
2021/04/22 01:22:56;;;;;;;2.23;1.57;;;9.40;98.00;;;;;;5076459;28;20464;-76
2021/04/22 01:25:24;;;;;;;3.50;2.47;;;9.20;98.00;;;;;;5074083;28;20508;-75
2021/04/22 01:27:52;;;;;;;1.20;1.00;;;9.20;98.00;;;;;;5078194;28;20466;-75
2021/04/22 01:30:22;;;;;;;1.20;1.00;;;9.10;98.00;;;;;;5076104;28;20454;-76
2021/04/22 01:32:49;;;;;;;1.90;1.60;;;8.90;98.00;;;;;;5078275;28;20940;-75
2021/04/22 01:35:18;;;;;;;2.17;1.40;;;8.70;98.00;;;;;;5076089;28;20965;-75
2021/04/22 01:37:46;;;;;;;1.37;1.37;;;8.70;98.00;;;;;;5077170;28;20480;-76
2021/04/22 01:40:15;;;;;;;1.30;1.23;;;8.60;98.00;;;;;;5075479;28;20493;-76
2021/04/22 01:42:42;;;;;;;1.87;1.30;;;8.60;98.00;;;;;;5077632;28;20455;-76
2021/04/22 01:45:10;;;;;;;1.30;1.23;;;8.70;98.00;;;;;;5074055;28;20932;-76
2021/04/22 01:47:37;;;;;;;2.10;1.63;;;8.80;98.00;;;;;;5075961;28;20867;-76
2021/04/22 01:50:06;;;;;;;1.50;1.30;;;8.90;98.00;;;;;;5073924;28;20441;-75
2021/04/22 01:52:33;;;;;;;1.20;1.00;;;8.90;98.00;;;;;;5079041;28;20553;-75
2021/04/22 01:55:00;;;;;;;3.30;1.50;;;8.90;98.00;;;;;;5077083;28;20463;-75
2021/04/22 01:57:27;;;;;;;1.30;1.20;;;8.80;98.00;;;;;;5080316;28;20521;-76
2021/04/22 01:59:54;;;;;;;1.30;1.27;;;8.80;98.00;;;;;;5077541;28;20523;-76
2021/04/22 02:02:21;;;;;;;2.27;1.53;;;8.90;98.00;;;;;;5080215;28;20447;-76
2021/04/22 02:04:47;;;;;;;1.20;1.00;;;8.80;98.00;;;;;;5076358;28;20457;-75
2021/04/22 02:07:14;;;;;;;1.40;1.30;;;8.80;98.00;;;;;;5080235;28;20502;-76
2021/04/22 02:09:41;;;;;;;1.47;1.43;;;8.90;98.00;;;;;;5078090;28;21171;-76
2021/04/22 02:12:08;;;;;;;1.20;1.20;;;9.00;98.00;;;;;;5080513;28;20513;-75
2021/04/22 02:14:36;;;;;;;1.53;1.50;;;9.10;98.00;;;;;;5077494;28;20459;-76
2021/04/22 02:17:03;;;;;;;1.93;1.30;;;9.20;98.00;;;;;;5079664;28;20981;-76
2021/04/22 02:19:30;;;;;;;1.50;1.10;;;9.20;98.00;;;;;;5077287;28;20467;-76
2021/04/22 02:21:56;;;;;;;1.23;1.03;;;9.20;98.00;;;;;;5080548;28;20456;-76
2021/04/22 02:24:23;;;;;;;2.80;1.33;;;9.30;98.00;;;;;;5080503;28;20506;-75
2021/04/22 02:26:50;;;;;;;1.60;1.27;;;9.30;98.00;;;;;;5078406;28;20480;-76
2021/04/22 02:29:16;;;;;;;3.40;1.50;;;9.40;98.00;;;;;;5080225;28;20449;-76
2021/04/22 02:31:44;;;;;;;2.37;1.70;;;9.30;98.00;;;;;;5077301;28;20461;-76
2021/04/22 02:34:10;;;;;;;2.50;1.83;;;9.30;98.00;;;;;;5079648;28;20496;-76
2021/04/22 02:36:37;;;;;;;1.20;1.00;;;9.30;98.00;;;;;;5077087;28;20963;-75
2021/04/22 02:39:05;;;;;;;2.40;1.67;;;9.40;98.00;;;;;;5079401;28;20463;-74
2021/04/22 02:41:33;;;;;;;1.43;1.20;;;9.50;98.00;;;;;;5075569;28;20449;-76
2021/04/22 02:44:00;;;;;;;1.67;1.53;;;9.50;98.00;;;;;;5078707;28;20540;-76
2021/04/22 02:46:27;;;;;;;2.27;1.43;;;9.40;98.00;;;;;;5076088;28;20482;-76
2021/04/22 02:48:54;;;;;;;2.90;1.50;;;9.20;98.00;;;;;;5078301;28;20463;-75
2021/04/22 02:51:20;;;;;;;1.87;1.60;;;8.90;98.00;;;;;;5074936;28;20458;-76
2021/04/22 02:53:47;;;;;;;2.03;1.40;;;8.90;98.00;;;;;;5079065;28;20513;-75
2021/04/22 02:56:14;;;;;;;2.03;1.20;;;8.80;98.00;;;;;;5076356;28;20479;-75
2021/04/22 02:58:40;;;;;;;1.70;1.43;;;8.70;98.00;;;;;;5077105;28;20507;-76
2021/04/22 03:01:06;;;;;;;1.53;1.43;;;8.90;98.00;;;;;;5075313;28;20456;-75
2021/04/22 03:03:33;;;;;;;1.60;1.47;;;8.80;98.00;;;;;;5076799;28;20481;-76
2021/04/22 03:06:00;;;;;;;1.50;1.30;;;8.70;98.00;;;;;;5075602;28;20484;-75
2021/04/22 03:08:27;;;;;;;1.53;1.37;;;8.90;98.00;;;;;;5078358;28;20499;-76
2021/04/22 03:10:54;;;;;;;1.77;1.67;;;8.90;98.00;;;;;;5076417;28;20872;-75
2021/04/22 03:13:20;;;;;;;1.30;1.27;;;9.00;98.00;;;;;;5079371;28;20468;-76
2021/04/22 03:15:47;;;;;;;2.03;1.47;;;9.10;98.00;;;;;;5075924;28;20446;-75
2021/04/22 03:18:14;;;;;;;1.30;1.17;;;9.10;98.00;;;;;;5077421;28;20498;-77
2021/04/22 03:20:41;;;;;;;1.40;1.40;;;9.30;98.00;;;;;;5075135;28;20450;-76
2021/04/22 03:23:09;;;;;;;1.67;1.60;;;9.30;98.00;;;;;;5077771;28;20456;-76
2021/04/22 03:25:36;;;;;;;1.30;1.20;;;9.20;98.00;;;;;;5074707;28;20482;-75
2021/04/22 03:28:03;;;;;;;1.87;1.63;;;9.10;98.00;;;;;;5076362;28;20486;-76
2021/04/22 03:30:32;;;;;;;3.40;1.50;;;9.10;98.00;;;;;;5073649;28;20491;-75
2021/04/22 03:33:00;;;;;;;2.40;1.67;;;9.20;98.00;;;;;;5077084;28;20450;-75
2021/04/22 03:35:26;;;;;;;1.63;1.60;;;9.10;98.00;;;;;;5074490;28;20500;-76
2021/04/22 03:37:54;;;;;;;1.50;1.00;;;8.90;98.00;;;;;;5076780;28;20561;-76
2021/04/22 03:40:23;;;;;;;1.50;1.40;;;8.80;98.00;;;;;;5074878;28;20521;-76
2021/04/22 03:42:50;;;;;;;1.30;1.20;;;8.60;98.00;;;;;;5076146;28;20460;-76
2021/04/22 03:45:17;;;;;;;1.47;1.27;;;8.50;98.00;;;;;;5072679;28;20464;-76
2021/04/22 03:47:44;;;;;;;1.50;1.50;;;8.50;98.00;;;;;;5076624;28;20467;-75
2021/04/22 03:50:13;;;;;;;1.87;1.10;;;8.50;98.00;;;;;;5074575;28;20460;-75
2021/04/22 03:52:41;;;;;;;1.87;1.83;;;8.50;98.00;;;;;;5076686;28;20457;-76
2021/04/22 03:55:11;;;;;;;1.77;1.50;;;8.60;98.00;;;;;;5074222;28;20472;-76
2021/04/22 03:57:46;;;;;;;2.30;1.50;;;8.60;98.00;;;;;;5077042;28;20514;-76
2021/04/22 04:00:15;;;;;;;1.30;1.10;;;8.70;98.00;;;;;;5072784;28;20935;-75
2021/04/22 04:02:42;;;;;;;1.33;1.17;;;8.80;98.00;;;;;;5075581;28;20469;-76
2021/04/22 04:05:09;;;;;;;1.30;1.20;;;8.70;98.00;;;;;;5072598;28;20475;-75
2021/04/22 04:07:37;;;;;;;1.87;1.53;;;8.70;98.00;;;;;;5075286;28;20841;-76
2021/04/22 04:10:05;;;;;;;1.20;1.10;;;8.70;98.00;;;;;;5072774;28;20541;-76
2021/04/22 04:12:33;;;;;;;1.30;1.10;;;8.60;98.00;;;;;;5075045;28;20472;-75
2021/04/22 04:15:00;;;;;;;1.37;1.20;;;8.70;98.00;;;;;;5070926;28;20486;-77
2021/04/22 04:17:27;;;;;;;1.53;1.23;;;8.90;98.00;;;;;;5074987;28;20459;-76
2021/04/22 04:19:53;;;;;;;2.23;1.43;;;8.70;98.00;;;;;;5071379;28;20509;-75
2021/04/22 04:22:21;;;;;;;1.30;1.20;;;8.80;98.00;;;;;;5074876;28;20475;-76
2021/04/22 04:24:47;;;;;;;1.83;1.43;;;8.90;98.00;;;;;;5072419;28;20460;-76
2021/04/22 04:27:14;;;;;;;1.80;1.30;;;8.80;98.00;;;;;;5075277;28;20484;-75
2021/04/22 04:29:42;;;;;;;1.20;1.17;;;8.80;98.00;;;;;;5073277;28;20471;-76
2021/04/22 04:32:10;;;;;;;1.57;1.40;;;8.70;98.00;;;;;;5075333;28;20464;-75
2021/04/22 04:34:37;;;;;;;1.20;1.10;;;8.40;98.00;;;;;;5075026;28;20451;-75
2021/04/22 04:37:06;;;;;;;1.50;1.20;;;8.20;98.00;;;;;;5073775;28;20832;-75
2021/04/22 04:39:32;;;;;;;1.60;1.17;;;8.10;98.00;;;;;;5074776;28;20460;-76
2021/04/22 04:41:59;;;;;;;1.93;1.33;;;8.10;98.00;;;;;;5072391;28;20523;-75
2021/04/22 04:44:25;;;;;;;2.13;1.83;;;8.00;98.00;;;;;;5074762;28;20465;-76
2021/04/22 04:46:52;;;;;;;1.20;1.10;;;7.80;98.00;;;;;;5071521;28;20488;-75
2021/04/22 04:49:20;;;;;;;3.57;1.50;;;7.80;98.00;;;;;;5056586;28;20464;-75
2021/04/22 04:51:46;;;;;;;1.67;1.40;;;7.80;98.00;;;;;;5072210;28;20452;-75
2021/04/22 04:54:14;;;;;;;2.13;1.47;;;8.00;98.00;;;;;;5075081;28;20541;-75
2021/04/22 04:56:41;;;;;;;1.20;1.10;;;8.00;98.00;;;;;;5071829;28;20460;-76
2021/04/22 04:59:08;;;;;;;1.70;1.30;;;8.10;98.00;;;;;;5073889;28;20461;-76
2021/04/22 05:01:34;;;;;;;1.40;1.30;;;8.20;98.00;;;;;;5071128;28;20459;-76
2021/04/22 05:04:01;;;;;;;1.93;1.30;;;8.30;98.00;;;;;;5074344;28;20456;-76
2021/04/22 05:06:29;;;;;;;2.07;1.50;;;8.30;98.00;;;;;;5071745;28;20483;-75
2021/04/22 05:08:55;;;;;;;1.47;1.37;;;8.30;98.00;;;;;;5074072;28;20464;-75
2021/04/22 05:11:22;;;;;;;1.60;1.40;;;8.20;98.00;;;;;;5071616;28;20511;-76
2021/04/22 05:13:48;;;;;;;2.67;2.13;;;8.20;98.00;;;;;;5074519;28;20464;-75
2021/04/22 05:16:15;;;;;;;1.20;1.00;;;8.10;98.00;;;;;;5071997;28;20935;-76
2021/04/22 05:18:41;;;;;;;1.20;1.07;;;8.20;98.00;;;;;;5073943;28;20518;-75
2021/04/22 05:21:08;;;;;;;1.30;1.23;;;8.30;98.00;;;;;;5071545;28;20805;-76
2021/04/22 05:23:35;;;;;;;1.50;1.40;;;8.30;98.00;;;;;;5074115;28;20467;-75
2021/04/22 05:26:02;;;;;;;1.47;1.40;;;8.50;98.00;;;;;;5071581;28;20481;-76
2021/04/22 05:28:28;;;;;;;1.83;1.57;;;8.60;98.00;;;;;;5077761;28;20809;-76
2021/04/22 05:30:55;;;;;;;1.87;1.30;;;8.80;98.00;;;;;;5074917;28;20472;-75
2021/04/22 05:33:21;;;;;;;1.40;1.40;;;8.80;98.00;;;;;;5077561;28;20470;-76
2021/04/22 05:35:48;;;;;;;2.13;1.93;;;8.90;98.00;;;;;;5074742;28;20495;-76
2021/04/22 05:38:14;;;;;;;1.27;1.13;;;8.80;98.00;;;;;;5077631;28;20886;-76
2021/04/22 05:40:42;;;;;;;1.50;1.40;;;8.80;98.00;;;;;;5074502;28;20839;-76
2021/04/22 05:43:08;;;;;;;1.57;1.50;;;8.90;98.00;;;;;;5077143;28;20464;-75
2021/04/22 05:45:35;;;;;;;1.40;1.30;;;8.90;98.00;;;;;;5074269;28;20465;-75
2021/04/22 05:48:02;;;;;;;1.70;1.50;;;8.90;98.00;;;;;;5076993;28;20448;-75
2021/04/22 05:50:30;;;;;;;1.67;1.50;;;9.00;98.00;;;;;;5073727;28;20465;-76
2021/04/22 05:52:56;;;;;;;2.17;1.40;;;9.10;98.00;;;;;;5076558;28;20468;-75
2021/04/22 05:55:23;;;;;;;1.43;1.37;;;9.20;98.00;;;;;;5073292;28;20449;-76
2021/04/22 05:57:50;;;;;;;1.93;1.47;;;9.20;98.00;;;;;;5076222;28;20451;-76
2021/04/22 06:00:20;;;;;;;1.30;1.00;;;9.20;98.00;;;;;;5073810;28;20510;-76
2021/04/22 06:02:46;;;;;;;1.90;1.43;;;9.40;98.00;;;;;;5075972;28;20458;-76
2021/04/22 06:05:14;;;;;;;1.50;1.37;;;9.50;98.00;;;;;;5073251;28;20465;-75
2021/04/22 06:07:40;;;;;;;1.70;1.50;;;9.50;98.00;;;;;;5074140;28;20501;-75
2021/04/22 06:10:08;;;;;;;2.57;1.93;;;9.50;98.00;;;;;;5072043;28;20462;-75
2021/04/22 06:12:34;;;;;;;2.70;1.57;;;9.60;98.00;;;;;;5075015;28;20472;-77
2021/04/22 06:15:03;;;;;;;1.40;1.40;;;9.60;98.00;;;;;;5071734;28;20484;-76
2021/04/22 06:17:29;;;;;;;1.30;1.27;;;9.60;98.00;;;;;;5074875;28;20450;-76
2021/04/22 06:19:56;;;;;;;4.80;2.13;;;9.60;98.00;;;;;;5072019;28;20449;-77
2021/04/22 06:22:22;;;;;;;1.50;1.40;;;9.70;98.00;;;;;;5074731;28;20460;-77
2021/04/22 06:24:50;;;;;;;1.93;1.40;;;9.90;98.00;;;;;;5073284;28;20448;-78
2021/04/22 06:27:17;;;;;;;1.30;1.20;;;10.00;98.00;;;;;;5074374;28;20529;-77
2021/04/22 06:29:43;;;;;;;1.40;1.20;;;10.00;98.00;;;;;;5074366;28;20467;-76
2021/04/22 06:32:11;;;;;;;1.43;1.13;;;9.90;98.00;;;;;;5071837;28;20449;-77
2021/04/22 06:34:37;;;;;;;1.77;1.67;;;10.20;98.00;;;;;;5074318;28;20455;-76
2021/04/22 06:37:04;;;;;;;1.50;1.40;;;10.30;98.00;;;;;;5071973;28;20456;-76
2021/04/22 06:39:31;;;;;;;2.43;2.33;;;10.40;98.00;;;;;;5073502;28;20445;-76
2021/04/22 06:41:58;;;;;;;4.40;1.90;;;10.30;98.00;;;;;;5071204;28;20449;-76
2021/04/22 06:44:26;;;;;;;2.53;1.60;;;10.30;98.00;;;;;;5073988;28;20488;-76
2021/04/22 06:46:53;;;;;;;1.30;1.20;;;10.50;98.00;;;;;;5071028;28;20485;-74
2021/04/22 06:49:22;;;;;;;1.40;1.30;;;10.50;98.00;;;;;;5073600;28;20490;-75
2021/04/22 06:51:48;;;;;;;1.70;1.43;;;10.60;98.00;;;;;;5070801;28;20521;-75
2021/04/22 06:54:15;;;;;;;2.43;1.73;;;10.60;98.00;;;;;;5073103;28;20458;-75
2021/04/22 06:56:42;;;;;;;2.77;2.17;;;10.60;98.00;;;;;;5070953;28;20504;-75
2021/04/22 06:59:09;;;;;;;1.93;1.67;;;10.60;98.00;;;;;;5074038;28;20979;-75
2021/04/22 07:01:35;;;;;;;2.33;1.90;;;10.70;98.00;;;;;;5070791;28;20916;-75
2021/04/22 07:04:02;;;;;;;2.97;2.20;;;10.90;98.00;;;;;;5073468;28;20459;-75
2021/04/22 07:06:30;;;;;;;2.17;1.87;;;11.10;98.00;;;;;;5069650;28;21025;-75
2021/04/22 07:08:59;;;;;;;1.60;1.50;;;11.30;98.00;;;;;;5073517;28;20504;-75
2021/04/22 07:11:27;;;;;;;4.33;2.33;;;11.30;98.00;;;;;;5070672;28;20464;-76
2021/04/22 07:13:54;;;;;;;3.20;1.63;;;11.30;98.00;;;;;;5073775;28;20488;-76
2021/04/22 07:16:20;;;;;;;2.80;1.63;;;11.30;98.00;;;;;;5069304;28;20461;-76
2021/04/22 07:18:47;;;;;;;2.23;1.70;;;11.40;98.00;;;;;;5073232;28;20943;-77
2021/04/22 07:21:14;;;;;;;2.93;2.07;;;11.50;98.00;;;;;;5069067;28;20890;-76
2021/04/22 07:23:43;;;;;;;1.40;1.30;;;11.60;98.00;;;;;;5073063;28;20803;-75
2021/04/22 07:26:10;;;;;;;1.63;1.60;;;11.60;98.00;;;;;;5069243;28;20544;-76
2021/04/22 07:28:37;;;;;;;2.80;2.33;;;11.70;98.00;;;;;;5073135;28;20458;-71
2021/04/22 07:31:03;;;;;;;2.00;1.27;;;11.60;98.00;;;;;;5068586;28;20454;-73
2021/04/22 07:33:30;;;;;;;4.07;1.97;;;11.60;98.00;;;;;;5072337;28;20794;-69
2021/04/22 07:35:56;;;;;;;1.30;1.13;;;11.70;98.00;;;;;;5069500;28;20494;-72
2021/04/22 07:38:23;;;;;;;1.63;1.63;;;11.60;98.00;;;;;;5072624;28;20459;-74
2021/04/22 07:40:50;;;;;;;1.70;1.30;;;11.60;98.00;;;;;;5069690;28;20447;-75
2021/04/22 07:43:17;;;;;;;2.07;1.93;;;11.60;98.00;;;;;;5071111;28;20970;-74
2021/04/22 07:45:45;;;;;;;2.60;1.73;;;11.60;98.00;;;;;;5071144;28;20519;-76
2021/04/22 07:48:12;;;;;;;1.30;1.13;;;11.70;98.00;;;;;;5072470;28;20560;-70
2021/04/22 07:50:40;;;;;;;2.27;1.73;;;11.70;98.00;;;;;;5069530;28;20456;-74
2021/04/22 07:53:08;;;;;;;3.77;2.20;;;11.60;98.00;;;;;;5071921;28;20452;-72
2021/04/22 07:55:39;;;;;;;2.07;1.80;;;11.60;98.00;;;;;;5069395;28;20905;-75
2021/04/22 07:58:08;;;;;;;3.67;1.77;;;11.50;98.00;;;;;;5072179;28;20448;-71
2021/04/22 08:00:38;;;;;;;2.53;1.90;;;11.60;98.00;;;;;;5069020;28;20480;-74
2021/04/22 08:03:04;;;;;;;1.87;1.77;;;11.60;98.00;;;;;;5071504;28;20821;-76
2021/04/22 08:05:37;;;;;;;2.03;1.70;;;11.60;98.00;;;;;;5069361;28;20460;-75
2021/04/22 08:08:05;;;;;;;1.83;1.37;;;11.70;98.00;;;;;;5071641;28;20462;-75
2021/04/22 08:10:33;;;;;;;1.60;1.20;;;11.70;98.00;;;;;;5068057;28;20464;-76
2021/04/22 08:13:03;;;;;;;1.40;1.20;;;11.70;98.00;;;;;;5071725;28;20455;-76
2021/04/22 08:15:31;;;;;;;1.57;1.40;;;11.80;98.00;;;;;;5068948;28;20807;-75
2021/04/22 08:17:58;;;;;;;2.43;1.40;;;11.80;98.00;;;;;;5072250;28;20451;-77
2021/04/22 08:20:25;;;;;;;1.50;1.30;;;11.80;97.50;;;;;;5069782;28;20461;-76
2021/04/22 08:22:53;;;;;;;14.53;2.27;;;11.70;97.90;;;;;;5071541;28;20802;-76
2021/04/22 08:25:23;;;;;;;1.87;1.60;;;11.90;98.00;;;;;;5069163;28;20556;-76
2021/04/22 08:27:52;;;;;;;1.60;1.10;;;12.10;98.00;;;;;;5071673;28;20827;-72
2021/04/22 08:30:21;;;;;;;1.37;1.20;;;12.10;97.50;;;;;;5068725;28;20448;-71
2021/04/22 08:32:52;;;;;;;2.00;1.87;;;12.00;97.50;;;;;;5069781;28;20469;-73
2021/04/22 08:35:19;;;;;;;3.50;2.20;;;12.10;97.30;;;;;;5067612;28;20459;-71
2021/04/22 08:37:46;;;;;;;2.07;1.50;;;12.10;97.60;;;;;;5069928;28;20487;-71
2021/04/22 08:40:14;;;;;;;1.40;1.40;;;12.20;97.60;;;;;;5068154;28;20508;-70
2021/04/22 08:42:41;;;;;;;5.00;1.80;;;12.30;97.10;;;;;;5071176;28;20804;-71
2021/04/22 08:45:10;;;;;;;2.40;1.50;;;12.40;96.50;;;;;;5068498;28;20456;-70
2021/04/22 08:47:38;;;;;;;2.23;1.50;;;12.30;96.40;;;;;;5071093;28;20484;-70
2021/04/22 08:50:10;;;;;;;1.70;1.60;;;12.20;96.70;;;;;;5069277;28;20486;-71
2021/04/22 08:52:37;;;;;;;3.27;1.70;;;12.40;96.50;;;;;;5070730;28;20985;-74
2021/04/22 08:55:06;;;;;;;2.50;1.70;;;12.40;96.10;;;;;;5069843;28;20463;-73
2021/04/22 08:57:33;;;;;;;2.07;1.67;;;12.40;96.30;;;;;;5070897;28;20456;-73
2021/04/22 09:00:00;;;;;;;1.50;1.50;;;12.50;96.30;;;;;;5070652;28;20462;-72
2021/04/22 09:02:27;;;;;;;1.90;1.80;;;12.60;94.30;;;;;;5067431;28;20455;-73
2021/04/22 09:04:54;;;;;;;1.67;1.40;;;12.80;95.50;;;;;;5069305;28;20452;-73
2021/04/22 09:07:21;;;;;;;3.60;1.97;;;13.00;93.70;;;;;;5066240;28;20573;-71
2021/04/22 09:09:48;;;;;;;1.90;1.30;;;13.30;92.80;;;;;;5071012;28;20456;-70
2021/04/22 09:12:16;;;;;;;1.30;1.20;;;13.30;93.20;;;;;;5068250;28;20816;-71
2021/04/22 09:14:54;;;;;;;1.33;1.33;;;13.40;92.50;;;;;;5070828;28;20463;-72
2021/04/22 09:17:23;;;;;;;1.93;1.53;;;13.60;93.20;;;;;;5068097;28;21276;-72
2021/04/22 09:19:50;;;;;;;2.80;1.57;;;13.70;92.10;;;;;;5069610;28;20488;-70
2021/04/22 09:22:17;;;;;;;2.07;1.63;;;13.60;89.60;;;;;;5068160;28;20459;-73
2021/04/22 09:24:44;;;;;;;1.20;1.10;;;13.40;90.60;;;;;;5070332;28;20457;-72
2021/04/22 09:27:14;;;;;;;1.70;1.57;;;13.30;89.70;;;;;;5067801;28;20498;-73
2021/04/22 09:29:48;;;;;;;2.80;1.63;;;13.20;90.00;;;;;;5070791;28;21269;-71
2021/04/22 09:32:18;;;;;;;2.17;1.70;;;13.10;90.80;;;;;;5067918;28;20464;-71
2021/04/22 09:34:48;;;;;;;1.40;1.20;;;13.20;90.60;;;;;;5070532;28;20770;-73
2021/04/22 09:37:15;;;;;;;1.40;1.30;;;13.40;88.10;;;;;;5065978;28;20450;-73
2021/04/22 09:39:42;;;;;;;1.40;1.30;;;13.70;86.00;;;;;;5070325;28;20507;-73
2021/04/22 09:42:12;;;;;;;1.40;1.33;;;13.70;87.80;;;;;;5067845;28;20486;-74
2021/04/22 09:44:41;;;;;;;1.87;1.67;;;13.70;89.40;;;;;;5070543;28;20457;-71
2021/04/22 09:47:12;;;;;;;1.83;1.40;;;13.70;87.90;;;;;;5066725;28;20514;-73
2021/04/22 09:49:46;;;;;;;1.97;1.20;;;14.00;88.30;;;;;;5069900;28;20498;-73
2021/04/22 09:52:17;;;;;;;1.60;1.33;;;14.20;88.50;;;;;;5067369;28;20450;-74
2021/04/22 09:54:45;;;;;;;1.60;1.50;;;14.30;87.70;;;;;;5070268;28;20462;-75
2021/04/22 09:57:22;;;;;;;1.80;1.30;;;14.30;86.20;;;;;;5068210;28;20945;-75
2021/04/22 09:59:49;;;;;;;1.70;1.60;;;14.30;85.70;;;;;;5070353;28;20486;-74
2021/04/22 10:02:16;;;;;;;3.03;2.20;;;14.50;87.10;;;;;;5067670;28;20549;-73
2021/04/22 10:04:46;;;;;;;2.40;1.97;;;14.80;85.60;;;;;;5070491;28;20457;-74
2021/04/22 10:07:22;;;;;;;1.80;1.47;;;14.90;87.20;;;;;;5066965;28;21080;-74
2021/04/22 10:09:50;;;;;;;5.90;2.13;;;15.00;83.90;;;;;;5070321;28;20458;-73
2021/04/22 10:12:25;;;;;;;1.40;1.20;;;15.00;82.60;;;;;;5068071;28;20469;-74
2021/04/22 10:14:52;;;;;;;2.50;1.70;;;15.20;83.20;;;;;;5074221;28;20461;-72
2021/04/22 10:17:20;;;;;;;2.07;1.47;;;15.10;81.80;;;;;;5071058;28;20508;-74
2021/04/22 10:20:04;;;;;;;1.30;1.27;;;15.00;80.70;;;;;;5073820;28;20457;-72
2021/04/22 10:22:32;;;;;;;1.67;1.63;;;14.90;81.10;;;;;;5071088;28;20451;-70
2021/04/22 10:25:04;;;;;;;1.70;1.60;;;15.00;81.90;;;;;;5073869;28;20823;-72
2021/04/22 10:27:32;;;;;;;1.67;1.40;;;15.40;83.70;;;;;;5070623;28;20486;-72
2021/04/22 10:29:59;;;;;;;2.70;2.30;;;15.60;80.40;;;;;;5073930;28;20824;-73
2021/04/22 10:32:26;;;;;;;1.70;1.17;;;15.50;80.30;;;;;;5070694;28;20462;-72
2021/04/22 10:34:54;;;;;;;1.73;1.53;;;15.30;80.20;;;;;;5073641;28;20518;-72
2021/04/22 10:37:22;;;;;;;11.80;1.50;;;15.40;82.50;;;;;;5069464;28;20455;-71
2021/04/22 10:39:50;;;;;;;1.20;1.10;;;15.60;82.10;;;;;;5073698;28;20458;-72
2021/04/22 10:42:18;;;;;;;1.70;1.63;;;15.80;79.10;;;;;;5070953;28;20485;-72
2021/04/22 10:44:48;;;;;;;1.60;1.50;;;16.00;79.40;;;;;;5073370;28;20459;-72
2021/04/22 10:47:16;;;;;;;1.70;1.60;;;16.10;74.40;;;;;;5070423;28;20533;-71
2021/04/22 10:49:43;;;;;;;2.53;1.30;;;16.10;75.30;;;;;;5074452;28;20460;-72
2021/04/22 10:52:10;;;;;;;1.37;1.33;;;16.00;71.00;;;;;;5071299;28;20451;-70
2021/04/22 10:54:39;;;;;;;1.43;1.30;;;16.20;72.50;;;;;;5073902;28;20821;-70
2021/04/22 10:57:09;;;;;;;1.83;1.23;;;16.40;73.00;;;;;;5071684;28;20456;-70
2021/04/22 10:59:36;;;;;;;2.37;1.60;;;16.60;73.60;;;;;;5073114;28;20553;-69
2021/04/22 11:02:18;;;;;;;1.20;1.10;;;16.70;73.50;;;;;;5070858;28;20461;-69
2021/04/22 11:04:45;;;;;;;1.40;1.23;;;17.00;73.10;;;;;;5073327;28;20462;-70
2021/04/22 11:07:17;;;;;;;1.60;1.40;;;17.00;69.40;;;;;;5070156;28;20534;-70
2021/04/22 11:09:44;;;;;;;1.57;1.40;;;16.80;70.60;;;;;;5072984;28;21159;-70
2021/04/22 11:12:12;;;;;;;1.20;1.13;;;16.80;68.70;;;;;;5070260;28;20452;-70
2021/04/22 11:14:42;;;;;;;2.13;1.00;;;16.60;69.30;;;;;;5071289;28;21227;-70
2021/04/22 11:17:11;;;;;;;1.40;1.10;;;16.80;70.30;;;;;;5068560;28;20552;-69
2021/04/22 11:19:41;;;;;;;1.50;1.30;;;17.10;69.10;;;;;;5072596;28;20587;-69
2021/04/22 11:22:16;;;;;;;1.83;1.40;;;17.40;69.40;;;;;;5068707;28;20544;-69
2021/04/22 11:24:50;;;;;;;2.00;1.50;;;17.70;66.40;;;;;;5071702;28;20459;-70
2021/04/22 11:27:16;;;;;;;1.20;1.00;;;17.30;64.00;;;;;;5069679;28;21058;-70
2021/04/22 11:29:46;;;;;;;1.20;1.10;;;17.30;64.20;;;;;;5072392;28;20453;-69
2021/04/22 11:32:25;;;;;;;1.40;1.20;;;17.50;66.20;;;;;;5069654;28;20486;-69
2021/04/22 11:34:55;;;;;;;1.60;1.20;;;17.80;64.80;;;;;;5072308;28;21123;-70
2021/04/22 11:37:24;;;;;;;1.73;1.30;;;18.00;63.80;;;;;;5069878;28;20502;-72
2021/04/22 11:39:51;;;;;;;1.20;1.03;;;18.20;63.10;;;;;;5072360;28;20460;-72
2021/04/22 11:42:19;;;;;;;1.30;1.10;;;18.40;60.80;;;;;;5068523;28;20453;-72
2021/04/22 11:44:50;;;;;;;1.53;1.30;;;18.50;57.30;;;;;;5072326;28;20449;-71
2021/04/22 11:47:25;;;;;;;1.60;1.10;;;18.60;57.60;;;;;;5069811;28;21094;-71
2021/04/22 11:50:07;;;;;;;1.60;1.30;;;18.70;58.30;;;;;;5072430;28;20943;-72
2021/04/22 11:52:47;;;;;;;3.63;1.80;;;18.70;57.50;;;;;;5069445;28;20461;-73
2021/04/22 11:55:24;;;;;;;2.83;1.83;;;18.70;55.00;;;;;;5072010;28;20544;-72
2021/04/22 11:58:04;;;;;;;1.40;1.20;;;18.80;51.80;;;;;;5071524;28;20810;-70
2021/04/22 12:00:32;;;;;;;2.90;1.60;;;18.80;57.10;;;;;;5069106;28;20457;-72
2021/04/22 12:02:59;;;;;;;1.70;1.40;;;18.40;57.70;;;;;;5070727;28;20464;-70
2021/04/22 12:05:29;;;;;;;2.13;1.30;;;18.50;58.60;;;;;;5069604;28;20506;-71
2021/04/22 12:07:57;;;;;;;1.87;1.10;;;18.30;59.50;;;;;;5071323;28;20527;-71
2021/04/22 12:10:25;;;;;;;1.40;1.30;;;18.20;59.60;;;;;;5070364;28;20482;-71
2021/04/22 12:12:51;;;;;;;1.30;1.20;;;18.10;58.10;;;;;;5070058;28;20449;-71
2021/04/22 12:15:20;;;;;;;1.70;1.37;;;18.00;57.90;;;;;;5071817;28;20571;-71
2021/04/22 12:17:47;;;;;;;1.30;1.20;;;18.10;56.30;;;;;;5069042;28;20586;-70
2021/04/22 12:20:18;;;;;;;1.30;1.20;;;18.20;58.70;;;;;;5071566;28;20465;-67
2021/04/22 12:22:48;;;;;;;1.23;1.10;;;18.30;57.90;;;;;;5068800;28;20460;-71
2021/04/22 12:25:19;;;;;;;1.40;1.30;;;18.00;59.20;;;;;;5071310;28;20831;-71
2021/04/22 12:27:48;;;;;;;2.70;1.53;;;18.00;58.30;;;;;;5068165;28;20512;-70
2021/04/22 12:30:28;;;;;;;1.20;1.10;;;18.00;58.00;;;;;;5071241;28;20974;-72
2021/04/22 12:33:06;;;;;;;2.10;1.40;;;18.10;56.40;;;;;;5071499;28;20488;-71
2021/04/22 12:35:34;;;;;;;2.10;1.60;;;18.10;56.70;;;;;;5067857;28;20460;-72
2021/04/22 12:38:13;;;;;;;2.50;1.67;;;18.30;57.10;;;;;;5070776;28;20485;-71
2021/04/22 12:40:43;;;;;;;2.17;1.40;;;18.40;54.70;;;;;;5069065;28;20800;-71
2021/04/22 12:43:10;;;;;;;1.40;1.20;;;18.40;52.60;;;;;;5071513;28;20560;-71
2021/04/22 12:45:37;;;;;;;1.67;1.40;;;18.10;54.10;;;;;;5067148;28;20814;-72
2021/04/22 12:48:08;;;;;;;1.30;1.20;;;17.90;51.80;;;;;;5070903;28;20480;-71
2021/04/22 12:50:39;;;;;;;1.20;1.07;;;18.00;54.20;;;;;;5068522;28;20457;-71
2021/04/22 12:53:12;;;;;;;1.50;1.37;;;18.20;53.80;;;;;;5071120;28;20549;-71
2021/04/22 12:55:42;;;;;;;1.30;1.20;;;18.40;54.70;;;;;;5067062;28;20463;-71
2021/04/22 12:58:09;;;;;;;1.43;1.20;;;18.60;56.90;;;;;;5070788;28;20460;-72